• Join FlightAware (Why Join?)
  • Login
  • US Flag 
09:55PM EDT


 

Airport Tracker/Info


-or-


 

Live Flight TrackerFlight Track Log ✈ N101MA ✈ 07-Jul-2013 ✈ KORF - KTEB

Flight Track Log - Related Links

Times and Time Zones

All times are in EDT time to prevent confusion due to time zone crossing. See the N101MA flight status page for this flight to view local times or setup timezone preferences in your user account.

Time Position Orientation Groundspeed Altitude Reporting Facility
EDT Latitude Longitude Course Direction KTS MPH feet Rate Location/Type
07:40PM 36.8806 -76.2203 222° Southwest 102 117 400  Level Washington Center
07:41PM 36.8531 -76.2511 222° Southwest 114 131 1,200 600 Climbing Washington Center
07:42PM 36.8614 -76.2878 286° West 119 137 1,800 540 Climbing Washington Center
07:43PM 36.8925 -76.2828 North 137 158 2,300 540 Climbing Washington Center
07:44PM 36.9367 -76.2597 23° Northeast 139 160 3,000 600 Climbing Washington Center
07:45PM 36.9719 -76.2444 19° North 139 160 3,700 600 Climbing Washington Center
07:46PM 37.0075 -76.2292 19° North 136 157 4,300 600 Climbing Washington Center
07:47PM 37.0431 -76.2111 22° Northeast 138 159 5,000 540 Climbing Washington Center
07:48PM 37.0767 -76.1958 20° North 141 162 5,500 540 Climbing Washington Center
07:49PM 37.1164 -76.1806 17° North 143 165 6,100 540 Climbing Washington Center
07:50PM 37.1603 -76.1600 20° North 150 173 6,700 420 Climbing Washington Center
07:51PM 37.1978 -76.1447 18° North 153 176 7,000 180 Climbing Washington Center
07:52PM 37.2606 -76.1164 20° North 184 212 7,100  Climbing Washington Center
07:53PM 37.3067 -76.0983 17° North 198 228 7,100  Level Washington Center
07:54PM 37.3547 -76.0753 21° North 193 222 7,100  Level Washington Center
07:55PM 37.4047 -76.0547 18° North 188 216 7,100 -60 Level Washington Center
07:56PM 37.4550 -76.0314 20° North 183 211 7,000  Descending Washington Center
07:57PM 37.5050 -76.0106 18° North 188 216 7,100  Climbing Washington Center
07:58PM 37.5531 -75.9875 21° North 188 216 7,000 -60 Descending Washington Center
07:59PM 37.6033 -75.9667 18° North 188 216 7,000  Level Washington Center
08:00PM 37.6514 -75.9356 27° Northeast 188 216 7,000  Level Washington Center
08:01PM 37.6972 -75.9119 22° Northeast 188 216 7,000  Level Washington Center
08:02PM 37.7475 -75.8756 30° Northeast 193 222 7,100  Climbing Washington Center
08:03PM 37.7892 -75.8519 24° Northeast 193 222 7,000 -60 Descending Washington Center
08:04PM 37.8289 -75.8231 30° Northeast 188 216 7,000  Level Washington Center
08:05PM 37.8894 -75.7892 24° Northeast 188 216 7,000  Level Washington Center
08:06PM 37.9375 -75.7631 23° Northeast 188 216 7,000  Level Washington Center
08:07PM 37.9833 -75.7339 27° Northeast 188 216 7,000  Level Washington Center
08:08PM 38.0333 -75.7050 24° Northeast 188 216 7,000  Level Washington Center
08:09PM 38.0772 -75.6708 31° Northeast 188 216 7,000  Level Washington Center
08:10PM 38.1253 -75.6444 23° Northeast 183 211 7,000  Level Washington Center
08:11PM 38.1711 -75.6156 26° Northeast 183 211 7,000  Level Washington Center
08:12PM 38.2189 -75.5864 26° Northeast 183 211 7,000  Level Washington Center
08:13PM 38.2669 -75.5547 27° Northeast 183 211 7,000  Level Washington Center
08:14PM 38.3192 -75.5231 25° Northeast 183 211 7,000  Level Washington Center
08:15PM 38.3692 -75.5069 14° North 189 217 7,000  Level Washington Center
08:16PM 38.4169 -75.5094 358° North 184 212 7,000  Level Washington Center
08:17PM 38.4692 -75.5094 360° North 178 205 7,000  Level Washington Center
08:18PM 38.5192 -75.5094 360° North 178 205 7,000  Level Washington Center
08:19PM 38.5692 -75.5094 360° North 178 205 7,000  Level Washington Center
08:20PM 38.6192 -75.5094 360° North 178 205 7,000 -240 Level Washington Center
08:21PM 38.6736 -75.5119 358° North 183 211 6,600 -600 Descending Washington Center
08:22PM 38.7278 -75.5092 North 183 211 5,900 -780 Descending Washington Center
08:23PM 38.7861 -75.5117 358° North 195 224 5,100 -480 Descending Washington Center
08:24PM 38.8383 -75.5117 360° North 195 224 5,000  Descending Washington Center
08:25PM 38.8861 -75.5117 360° North 184 212 5,100  Climbing Washington Center
08:27PM 36.9483 -76.1855 13° North  Level FlightAware Approximate
08:32PM 39.2000 -75.4333 North 153 176 5,000  Level Philadelphia TRACON
08:33PM 39.2500 -75.4333 360° North 144 166 5,100  Climbing Philadelphia TRACON
08:34PM 37.2544 -76.0277 349° North  Level Estimated
08:34PM 39.2833 -75.4500 339° North 168 193 5,100  Level Philadelphia TRACON
08:35PM 37.2981 -76.0050 348° North  Level Estimated
08:35PM 39.3333 -75.4667 346° North 173 199 5,100  Level Philadelphia TRACON
08:36PM 37.3448 -75.9952 North  Level FlightAware Approximate
08:36PM 39.3833 -75.4833 346° North 179 206 5,100  Level Philadelphia TRACON
08:37PM 37.3884 -75.9724 352° North  Level Estimated
08:37PM 39.4333 -75.5000 346° North 175 201 5,000  Level Philadelphia TRACON
08:38PM 37.4353 -75.9650 North  Level FlightAware Approximate
08:38PM 39.4667 -75.5167 339° North 177 204 5,000  Level Philadelphia TRACON
08:39PM 39.5167 -75.5333 346° North 172 198 5,100  Climbing Philadelphia TRACON
08:40PM 39.5667 -75.5500 346° North 168 193 5,100  Level Philadelphia TRACON
08:42PM 39.6224 -75.5778 339° North  Level FlightAware Approximate
08:42PM 39.6500 -75.5833 339° North 167 192 5,100  Level Philadelphia TRACON
08:43PM 39.7000 -75.6000 346° North 165 190 5,000 -360 Descending Philadelphia TRACON
08:44PM 39.7500 -75.6167 346° North 185 213 4,500 -540 Descending Philadelphia TRACON
08:45PM 39.8000 -75.6333 346° North 192 221 4,000 -240 Descending Philadelphia TRACON
08:46PM 39.8500 -75.6500 346° North 177 204 4,100  Climbing Philadelphia TRACON
08:47PM 39.9000 -75.6667 346° North 167 192 4,100  Level Philadelphia TRACON
08:48PM 39.9500 -75.6333 27° Northeast 190 219 4,100  Level Philadelphia TRACON
08:49PM 39.9833 -75.5833 49° Northeast 193 222 4,100  Level Philadelphia TRACON
08:50PM 40.0167 -75.5333 49° Northeast 193 222 4,100 -60 Level Philadelphia TRACON
08:51PM 40.0500 -75.4833 49° Northeast 193 222 4,000  Descending Philadelphia TRACON
08:52PM 40.0833 -75.4333 49° Northeast 191 220 4,100  Climbing Philadelphia TRACON
08:53PM 40.1333 -75.3833 37° Northeast 186 214 4,100  Level Philadelphia TRACON
08:54PM 40.1667 -75.3333 49° Northeast 171 197 4,100  Level Philadelphia TRACON
08:55PM 40.1833 -75.2833 66° East 169 194 4,100  Level Philadelphia TRACON
08:56PM 40.2167 -75.2500 37° Northeast 163 188 4,100  Level Philadelphia TRACON
08:57PM 40.2500 -75.2000 49° Northeast 163 188 4,100  Level Philadelphia TRACON
08:58PM 40.2833 -75.1667 37° Northeast 159 183 4,100  Level Philadelphia TRACON
08:59PM 40.3167 -75.1167 49° Northeast 164 189 4,100  Level Philadelphia TRACON
09:00PM 40.3500 -75.0667 49° Northeast 162 186 4,100  Level New York TRACON
09:02PM 40.3833 -75.0333 37° Northeast 161 185 4,100  Level New York TRACON
09:02PM 40.4000 -74.9833 66° East 164 189 4,100  Level New York TRACON
09:03PM 40.4333 -74.9500 37° Northeast 162 186 4,100 -240 Level New York TRACON
09:04PM 40.4667 -74.9000 49° Northeast 180 207 3,700 -480 Descending New York TRACON
09:05PM 40.5000 -74.8500 49° Northeast 200 230 3,200 -360 Descending New York TRACON
09:06PM 40.5500 -74.8000 37° Northeast 182 209 3,000 -120 Descending New York TRACON
09:07PM 40.5667 -74.7500 66° East 158 182 3,000  Level New York TRACON
09:08PM 40.6000 -74.7000 49° Northeast 158 182 3,000  Level New York TRACON
09:09PM 40.5667 -74.7000 180° South 127 146 3,000  Level New York TRACON
09:11PM 40.5333 -74.7333 217° Southwest 118 136 3,100  Climbing New York TRACON
09:12PM 40.5167 -74.7667 237° Southwest 125 144 3,100  Level New York TRACON
09:13PM 40.5167 -74.8000 270° West 148 170 3,100  Level New York TRACON
09:14PM 40.5500 -74.7833 21° North 157 181 3,100  Level New York TRACON
09:15PM 40.5833 -74.7500 37° Northeast 158 182 3,100  Level New York TRACON
09:16PM 40.5833 -74.7000 90° East 174 200 3,100  Level New York TRACON
09:17PM 40.5500 -74.7333 217° Southwest 118 136 3,100  Level New York TRACON
09:18PM 40.5333 -74.7667 237° Southwest 120 138 3,100  Level New York TRACON
09:19PM 40.5000 -74.8000 217° Southwest 135 155 3,100  Level New York TRACON
09:20PM 40.5333 -74.8167 339° North 164 189 3,100  Level New York TRACON
09:21PM 40.5667 -74.7667 49° Northeast 161 185 3,100  Level New York TRACON
09:22PM 40.5833 -74.7167 66° East 161 185 3,100  Level New York TRACON
09:23PM 40.5667 -74.7167 180° South 136 157 3,100  Level New York TRACON
09:24PM 40.5333 -74.7500 217° Southwest 124 143 3,100  Level New York TRACON
09:25PM 40.5167 -74.7833 237° Southwest 127 146 3,100  Level New York TRACON
09:26PM 40.5167 -74.8167 270° West 154 177 3,100  Level New York TRACON
09:27PM 40.5500 -74.7833 37° Northeast 144 166 3,100  Level New York TRACON
09:28PM 40.5833 -74.7667 21° North 139 160 3,100  Level New York TRACON
09:29PM 40.6333 -74.7667 360° North 145 167 3,100  Level New York TRACON
09:30PM 40.6667 -74.7500 21° North 147 169 3,100  Level New York TRACON